< < Back
Terminal Aerodrome Forecast


Current Version              Previous Versions:   1  2  3  4  5  6  7  8  9  

Terminal Aerodrome Forecast

542
FTAK31 PAJN 252320
TAFAGS
TAF
PAGS 252320Z 2600/2624 23008KT P6SM BKN040 OVC060
     FM260300 VRB03KT P6SM BKN040 BKN080
     FM261800 22005KT P6SM SCT050
      AMD LTD TO CLD VIS AND WIND=



Latest METAR

994
SAUS70 KWBC 260000 RRI
MTRAGS
METAR KAGS 252353Z 17003KT 10SM CLR 27/17 A3014 RMK AO2 SLP205 T02670172
10317 20267 56008


USA.gov is the U.S. government's official web portal to all federal, state and local government web resources and services.